Time;durP1;ratioP1;P1;durP2;ratioP2;P2;SDS_P1;SDS_P2;PMS_P1;PMS_P2;Temp;Humidity;BMP_temperature;BMP_pressure;BME280_temperature;BME280_humidity;BME280_pressure;Samples;Min_cycle;Max_cycle;Signal;HPM_P1;HPM_P2
2022/10/18 00:01:24;;;;;;;44.42;23.77;;;11.00;99.90;;;;;;10407747;28;20662;-77
2022/10/18 00:06:25;;;;;;;43.90;25.30;;;11.10;99.90;;;;;;10410994;28;20052;-79
2022/10/18 00:11:26;;;;;;;46.80;26.75;;;11.20;99.90;;;;;;10396603;28;20466;-77
2022/10/18 00:16:26;;;;;;;48.22;27.90;;;11.20;99.90;;;;;;10410444;28;20051;-77
2022/10/18 00:21:27;;;;;;;31.23;19.15;;;11.40;99.90;;;;;;10401492;28;20029;-77
2022/10/18 00:26:29;;;;;;;24.60;14.60;;;11.50;99.90;;;;;;10407649;28;20456;-81
2022/10/18 00:31:32;;;;;;;22.45;14.57;;;11.80;99.90;;;;;;10407924;28;20128;-77
2022/10/18 00:36:34;;;;;;;23.95;12.85;;;11.90;99.90;;;;;;10403528;28;20041;-77
2022/10/18 00:41:36;;;;;;;22.95;13.18;;;12.10;99.90;;;;;;10396664;28;20542;-76
2022/10/18 00:46:47;;;;;;;29.05;16.40;;;12.20;99.90;;;;;;10399084;28;20041;-79
2022/10/18 00:51:55;;;;;;;26.20;16.85;;;12.20;99.90;;;;;;10407295;28;20065;-76
2022/10/18 00:56:56;;;;;;;34.30;20.27;;;12.40;99.90;;;;;;10389805;28;20030;-77
2022/10/18 01:01:57;;;;;;;29.25;17.92;;;12.40;99.90;;;;;;10407088;28;20037;-77
2022/10/18 01:07:07;;;;;;;28.15;17.13;;;12.50;99.90;;;;;;10404741;28;20049;-78
2022/10/18 01:12:42;;;;;;;22.38;14.25;;;12.60;99.90;;;;;;10405435;28;20045;-77
2022/10/18 01:18:01;;;;;;;22.05;12.23;;;12.60;99.90;;;;;;10397953;28;20037;-77
2022/10/18 01:23:21;;;;;;;22.52;14.68;;;12.50;99.90;;;;;;10403872;28;20104;-77
2022/10/18 01:29:01;;;;;;;36.92;19.38;;;12.60;99.90;;;;;;10401100;28;20047;-77
2022/10/18 01:34:06;;;;;;;31.95;19.20;;;12.60;99.90;;;;;;10393715;28;20505;-78
2022/10/18 01:39:14;;;;;;;31.00;18.50;;;12.60;99.90;;;;;;10402936;28;20124;-77
2022/10/18 01:44:22;;;;;;;21.60;12.18;;;12.60;99.90;;;;;;10407395;28;20056;-77
2022/10/18 01:49:27;;;;;;;22.95;11.30;;;12.60;99.90;;;;;;10404478;28;20495;-79
2022/10/18 01:54:32;;;;;;;20.10;11.13;;;12.50;99.90;;;;;;10393594;28;20126;-80
2022/10/18 02:00:00;;;;;;;18.05;11.15;;;12.40;99.90;;;;;;10406028;28;20026;-77
2022/10/18 02:05:11;;;;;;;19.83;11.50;;;12.30;99.90;;;;;;10405227;28;20606;-81
2022/10/18 02:10:28;;;;;;;17.17;9.93;;;12.20;99.90;;;;;;10397167;28;20034;-78
2022/10/18 02:15:34;;;;;;;19.13;11.70;;;12.10;99.90;;;;;;10378398;28;20040;-79
2022/10/18 02:20:37;;;;;;;21.10;11.63;;;12.00;99.90;;;;;;10405909;28;20064;-77
2022/10/18 02:25:38;;;;;;;18.75;11.57;;;11.90;99.90;;;;;;10391473;28;20071;-77
2022/10/18 02:30:57;;;;;;;20.65;11.98;;;11.90;99.90;;;;;;10401224;28;20029;-77
2022/10/18 02:36:05;;;;;;;27.20;14.68;;;11.90;99.90;;;;;;10404420;28;20055;-77
2022/10/18 02:41:06;;;;;;;21.90;13.00;;;11.70;99.90;;;;;;10391155;28;20036;-77
2022/10/18 02:46:06;;;;;;;29.77;20.63;;;11.70;99.90;;;;;;10394848;28;20045;-78
2022/10/18 02:51:07;;;;;;;19.52;12.82;;;11.70;99.90;;;;;;10398430;28;20045;-81
2022/10/18 02:56:08;;;;;;;17.08;11.25;;;11.70;99.90;;;;;;10396659;28;20034;-79
2022/10/18 03:01:08;;;;;;;21.42;11.85;;;11.70;99.90;;;;;;10396800;28;20801;-77
2022/10/18 03:06:09;;;;;;;22.23;12.43;;;11.70;99.90;;;;;;10405175;28;20374;-79
2022/10/18 03:11:10;;;;;;;18.15;10.55;;;11.60;99.90;;;;;;10410329;28;20594;-78
2022/10/18 03:16:11;;;;;;;18.88;10.20;;;11.70;99.90;;;;;;10412475;28;20037;-78
2022/10/18 03:21:12;;;;;;;24.45;13.68;;;11.70;99.90;;;;;;10411577;28;20030;-77
2022/10/18 03:26:12;;;;;;;32.90;16.77;;;11.70;99.90;;;;;;10407109;28;20037;-80
2022/10/18 03:31:13;;;;;;;25.65;15.18;;;11.70;99.90;;;;;;10403521;28;20436;-77
2022/10/18 03:36:14;;;;;;;30.48;16.60;;;11.70;99.90;;;;;;10409032;28;20072;-77
2022/10/18 03:41:14;;;;;;;20.70;12.52;;;11.70;99.90;;;;;;10408824;28;20025;-76
2022/10/18 03:46:15;;;;;;;25.15;13.98;;;11.70;99.90;;;;;;10396615;28;20039;-77
2022/10/18 03:51:15;;;;;;;26.95;14.75;;;11.80;99.90;;;;;;10405492;28;20030;-80
2022/10/18 03:56:16;;;;;;;32.08;18.13;;;11.90;99.90;;;;;;10401815;28;20518;-77
2022/10/18 04:01:17;;;;;;;33.25;17.52;;;11.80;99.90;;;;;;10403610;28;20040;-77
2022/10/18 04:06:17;;;;;;;24.73;13.90;;;11.70;99.90;;;;;;10397127;28;20049;-78
2022/10/18 04:11:18;;;;;;;20.98;12.10;;;11.50;99.90;;;;;;10406435;28;20132;-77
2022/10/18 04:16:18;;;;;;;20.58;11.05;;;11.20;99.90;;;;;;10394879;28;20029;-76
2022/10/18 04:21:19;;;;;;;25.20;13.13;;;11.00;99.90;;;;;;10397414;28;20029;-77
2022/10/18 04:26:20;;;;;;;45.30;13.98;;;10.90;99.90;;;;;;10403745;28;20562;-77
2022/10/18 04:31:21;;;;;;;24.25;13.25;;;10.70;99.90;;;;;;10407747;28;20044;-76
2022/10/18 04:36:21;;;;;;;34.78;17.20;;;10.50;99.90;;;;;;10402162;28;20036;-77
2022/10/18 04:41:22;;;;;;;31.38;17.05;;;10.50;99.90;;;;;;10402141;28;20028;-77
2022/10/18 04:46:22;;;;;;;22.85;14.45;;;10.50;99.90;;;;;;10408252;28;20009;-76
2022/10/18 04:51:23;;;;;;;28.45;17.63;;;10.30;99.90;;;;;;10408645;28;20485;-77
2022/10/18 04:56:24;;;;;;;30.90;17.80;;;10.20;99.90;;;;;;10409268;28;20037;-78
2022/10/18 05:01:24;;;;;;;35.63;18.50;;;10.20;99.90;;;;;;10408841;28;20029;-77
2022/10/18 05:06:25;;;;;;;25.90;14.00;;;10.10;99.90;;;;;;10397742;28;20061;-76
2022/10/18 05:11:25;;;;;;;26.63;15.83;;;10.00;99.90;;;;;;10408072;28;20478;-77
2022/10/18 05:16:27;;;;;;;23.07;14.17;;;10.00;99.90;;;;;;10408303;28;20040;-75
2022/10/18 05:21:27;;;;;;;32.97;16.70;;;10.00;99.90;;;;;;10406823;28;20087;-76
2022/10/18 05:26:28;;;;;;;24.88;12.98;;;10.10;99.90;;;;;;10406981;28;20424;-76
2022/10/18 05:31:29;;;;;;;26.58;15.63;;;10.30;99.90;;;;;;10407426;28;20400;-77
2022/10/18 05:36:29;;;;;;;27.40;15.43;;;10.40;99.90;;;;;;10394109;28;20041;-77
2022/10/18 05:41:30;;;;;;;33.45;17.63;;;10.50;99.90;;;;;;10406851;28;20087;-76
2022/10/18 05:46:32;;;;;;;38.50;22.05;;;10.50;99.90;;;;;;10406996;28;20061;-76
2022/10/18 05:51:32;;;;;;;29.83;19.10;;;10.60;99.90;;;;;;10406513;28;20033;-77
2022/10/18 05:56:33;;;;;;;32.60;18.80;;;10.60;99.90;;;;;;10406981;28;20029;-76
2022/10/18 06:01:33;;;;;;;30.58;18.60;;;10.80;99.90;;;;;;10406406;28;20029;-78
2022/10/18 06:06:35;;;;;;;28.85;17.33;;;10.90;99.90;;;;;;10406080;28;20103;-76
2022/10/18 06:11:36;;;;;;;27.83;18.45;;;11.10;99.90;;;;;;10406126;28;20040;-79
2022/10/18 06:16:36;;;;;;;34.20;19.95;;;11.30;99.90;;;;;;10405762;28;20394;-78
2022/10/18 06:21:37;;;;;;;31.05;19.45;;;11.50;99.90;;;;;;10406142;28;20029;-78
2022/10/18 06:26:38;;;;;;;29.80;17.48;;;11.70;99.90;;;;;;10402970;28;20668;-76
2022/10/18 06:31:38;;;;;;;33.10;18.38;;;11.90;99.90;;;;;;10405997;28;20038;-76
2022/10/18 06:36:39;;;;;;;22.40;12.38;;;12.10;99.90;;;;;;10404946;28;20040;-77
2022/10/18 06:41:39;;;;;;;18.45;11.82;;;12.20;99.90;;;;;;10404811;28;20033;-76
2022/10/18 06:46:41;;;;;;;21.30;12.30;;;12.40;99.90;;;;;;10406086;28;20116;-77
2022/10/18 06:51:43;;;;;;;18.40;10.82;;;12.60;99.90;;;;;;10404951;28;20029;-78
2022/10/18 06:56:44;;;;;;;18.08;9.70;;;12.80;99.90;;;;;;10405316;28;20029;-77
2022/10/18 07:01:44;;;;;;;17.33;9.75;;;13.00;99.90;;;;;;10405394;28;20033;-78
2022/10/18 07:06:45;;;;;;;26.83;14.50;;;13.20;99.90;;;;;;10405065;28;20110;-76
2022/10/18 07:11:45;;;;;;;53.17;28.73;;;13.50;99.90;;;;;;10404569;28;20033;-79
2022/10/18 07:16:46;;;;;;;24.05;13.48;;;13.70;99.90;;;;;;10398287;28;20033;-76
2022/10/18 07:21:47;;;;;;;22.55;11.85;;;13.90;99.90;;;;;;10404876;28;20090;-78
2022/10/18 07:26:47;;;;;;;20.60;11.40;;;14.20;99.90;;;;;;10404286;28;20045;-79
2022/10/18 07:31:48;;;;;;;20.58;12.43;;;14.50;99.90;;;;;;10404891;28;20477;-78
2022/10/18 07:36:49;;;;;;;17.67;8.85;;;14.70;99.90;;;;;;10404244;28;20378;-76
2022/10/18 07:41:49;;;;;;;25.17;11.45;;;15.00;99.90;;;;;;10403822;28;20077;-79
2022/10/18 07:46:50;;;;;;;40.85;23.42;;;15.30;99.90;;;;;;10405384;28;20121;-76
2022/10/18 07:51:50;;;;;;;22.23;11.23;;;15.50;98.60;;;;;;10411496;28;20485;-77
2022/10/18 07:56:51;;;;;;;19.85;11.65;;;15.80;96.00;;;;;;10412237;28;20029;-80
2022/10/18 08:01:51;;;;;;;87.72;38.58;;;16.00;94.80;;;;;;10411891;28;20026;-77
2022/10/18 08:06:52;;;;;;;31.95;16.48;;;16.40;93.50;;;;;;10409893;28;20048;-76
2022/10/18 08:11:53;;;;;;;17.42;8.73;;;16.70;92.30;;;;;;10410058;28;20063;-76
2022/10/18 08:16:55;;;;;;;15.73;9.00;;;16.90;90.30;;;;;;10411004;28;20033;-78
2022/10/18 08:21:55;;;;;;;17.17;9.23;;;17.00;89.60;;;;;;10410708;28;20032;-79
2022/10/18 08:26:56;;;;;;;18.58;10.55;;;17.20;88.90;;;;;;10410858;28;20033;-76
2022/10/18 08:31:56;;;;;;;18.27;10.52;;;17.40;85.40;;;;;;10409666;28;20551;-78
2022/10/18 08:36:57;;;;;;;14.27;6.82;;;17.50;84.70;;;;;;10410296;28;20029;-76
2022/10/18 08:42:16;;;;;;;17.40;7.70;;;17.70;83.60;;;;;;10409478;28;20037;-75
2022/10/18 08:47:23;;;;;;;25.23;12.93;;;17.90;80.70;;;;;;10409302;28;20021;-76
2022/10/18 08:52:24;;;;;;;83.47;44.90;;;18.00;82.50;;;;;;10409030;28;20883;-77
2022/10/18 08:57:24;;;;;;;22.48;9.48;;;18.20;82.00;;;;;;10409142;28;20086;-76
2022/10/18 09:02:37;;;;;;;30.75;14.32;;;18.30;78.60;;;;;;10409013;28;20041;-76
2022/10/18 09:07:58;;;;;;;18.45;11.02;;;18.30;79.00;;;;;;10408533;28;20501;-77
2022/10/18 09:13:19;;;;;;;16.63;7.40;;;18.50;77.90;;;;;;10406907;28;20062;-78
2022/10/18 09:18:23;;;;;;;18.38;7.47;;;18.60;76.30;;;;;;10407527;28;20234;-79
2022/10/18 09:23:48;;;;;;;14.43;6.95;;;18.60;75.00;;;;;;10408823;28;20037;-77
2022/10/18 09:29:27;;;;;;;8.63;5.78;;;18.80;73.90;;;;;;10407497;28;20037;-78
2022/10/18 09:34:36;;;;;;;11.48;5.05;;;18.80;73.80;;;;;;10397272;28;20069;-76
2022/10/18 09:39:38;;;;;;;7.80;4.70;;;19.00;72.90;;;;;;10407856;28;20378;-76
2022/10/18 09:44:42;;;;;;;14.85;6.75;;;19.10;72.30;;;;;;10407297;28;20448;-77
2022/10/18 09:49:51;;;;;;;10.27;5.00;;;19.30;71.70;;;;;;10408355;28;20033;-80
2022/10/18 09:54:57;;;;;;;10.50;5.05;;;19.40;70.00;;;;;;10407002;28;20893;-77
2022/10/18 10:00:00;;;;;;;9.70;5.05;;;19.60;69.90;;;;;;10407205;28;20060;-76
2022/10/18 10:05:01;;;;;;;11.95;4.70;;;19.70;70.20;;;;;;10407111;28;20511;-76
2022/10/18 10:10:04;;;;;;;7.97;5.05;;;19.80;68.60;;;;;;10405566;28;20067;-76
2022/10/18 10:15:16;;;;;;;7.95;3.95;;;19.90;70.70;;;;;;10406245;28;20553;-78
2022/10/18 10:20:23;;;;;;;10.35;4.70;;;20.10;68.30;;;;;;10406148;28;20021;-76
2022/10/18 10:25:33;;;;;;;9.10;5.05;;;20.10;66.70;;;;;;10403956;28;20569;-75
2022/10/18 10:30:36;;;;;;;11.82;5.50;;;20.10;66.10;;;;;;10401939;28;20756;-78
2022/10/18 10:35:41;;;;;;;7.88;4.90;;;20.20;65.40;;;;;;10405377;28;20111;-75
2022/10/18 10:40:50;;;;;;;11.90;5.43;;;20.30;66.20;;;;;;10404997;28;20017;-75
2022/10/18 10:46:02;;;;;;;10.48;5.95;;;20.40;65.20;;;;;;10405477;28;20099;-78
2022/10/18 10:51:14;;;;;;;9.48;5.00;;;20.50;65.90;;;;;;10405132;28;20405;-76
2022/10/18 10:56:50;;;;;;;9.90;4.97;;;20.60;64.60;;;;;;10405583;28;20021;-75
2022/10/18 11:02:16;;;;;;;7.95;4.68;;;20.70;65.20;;;;;;10397505;28;20336;-76
2022/10/18 11:07:35;;;;;;;10.43;5.15;;;20.80;65.70;;;;;;10405127;28;20098;-79
2022/10/18 11:12:38;;;;;;;7.22;4.07;;;20.90;64.70;;;;;;10404387;28;20056;-76
2022/10/18 11:17:58;;;;;;;7.93;4.28;;;21.00;62.90;;;;;;10404680;28;20033;-76
2022/10/18 11:23:10;;;;;;;8.95;4.38;;;20.80;62.90;;;;;;10407205;28;20579;-76
2022/10/18 11:28:25;;;;;;;12.15;4.75;;;20.80;62.70;;;;;;10413213;28;20746;-75
2022/10/18 11:33:38;;;;;;;10.13;4.70;;;20.90;64.20;;;;;;10412259;28;20040;-77
2022/10/18 11:38:56;;;;;;;8.23;5.38;;;20.90;62.80;;;;;;10408341;28;20371;-75
2022/10/18 11:44:03;;;;;;;11.10;5.85;;;20.90;63.60;;;;;;10411657;28;20474;-76
2022/10/18 11:49:22;;;;;;;9.63;6.05;;;21.00;64.50;;;;;;10412340;28;20025;-78
2022/10/18 11:54:41;;;;;;;7.40;5.00;;;21.00;63.50;;;;;;10411147;28;20061;-76
2022/10/18 11:59:58;;;;;;;11.65;7.15;;;21.00;64.10;;;;;;10411701;28;20457;-78
2022/10/18 12:05:01;;;;;;;8.73;5.25;;;21.00;63.30;;;;;;10411301;28;20084;-75
2022/10/18 12:10:06;;;;;;;11.50;4.60;;;21.10;64.00;;;;;;10411159;28;20025;-78
2022/10/18 12:15:33;;;;;;;8.30;5.13;;;21.20;64.40;;;;;;10410653;28;20091;-76
2022/10/18 12:20:50;;;;;;;12.02;6.68;;;21.30;63.90;;;;;;10409740;28;20045;-76
2022/10/18 12:25:58;;;;;;;11.63;5.57;;;21.30;63.40;;;;;;10408519;28;20033;-76
2022/10/18 12:31:11;;;;;;;10.85;6.68;;;21.20;63.60;;;;;;10399628;28;20076;-79
2022/10/18 12:36:31;;;;;;;9.20;4.82;;;21.20;64.50;;;;;;10388025;28;20392;-78
2022/10/18 12:41:34;;;;;;;9.98;4.80;;;21.20;64.20;;;;;;10409614;28;20032;-76
2022/10/18 12:46:51;;;;;;;8.70;5.03;;;21.20;64.40;;;;;;10410220;28;20113;-78
2022/10/18 12:51:57;;;;;;;12.63;6.63;;;21.20;64.50;;;;;;10408586;28;20077;-76
2022/10/18 12:57:02;;;;;;;8.80;5.35;;;21.10;64.60;;;;;;10410159;28;20669;-78
2022/10/18 13:02:06;;;;;;;7.13;4.97;;;21.20;65.00;;;;;;10396683;28;20132;-78
2022/10/18 13:07:07;;;;;;;10.93;6.25;;;21.20;65.70;;;;;;10400375;28;20083;-78
2022/10/18 13:12:13;;;;;;;11.27;5.75;;;21.10;65.20;;;;;;10404198;28;20114;-75
2022/10/18 13:17:25;;;;;;;8.55;5.55;;;21.10;66.00;;;;;;10402057;28;20496;-76
2022/10/18 13:22:36;;;;;;;42.35;21.30;;;21.20;66.60;;;;;;10398228;28;20029;-76
2022/10/18 13:27:56;;;;;;;9.48;6.00;;;21.20;66.00;;;;;;10402100;28;20044;-77
2022/10/18 13:33:12;;;;;;;10.82;5.57;;;21.10;66.60;;;;;;10404238;28;20397;-76
2022/10/18 13:38:35;;;;;;;16.35;8.73;;;21.00;66.60;;;;;;10405724;28;20057;-76
2022/10/18 13:43:51;;;;;;;9.57;6.00;;;21.00;67.20;;;;;;10396565;28;20037;-75
2022/10/18 13:48:54;;;;;;;11.98;7.28;;;20.90;67.80;;;;;;10398202;28;20635;-76
2022/10/18 13:54:09;;;;;;;18.02;8.98;;;20.70;68.30;;;;;;10406068;28;20041;-76
2022/10/18 13:59:27;;;;;;;18.05;9.23;;;20.70;68.30;;;;;;10406389;28;20033;-76
2022/10/18 14:04:53;;;;;;;22.58;9.30;;;20.70;69.30;;;;;;10397239;28;20095;-76
2022/10/18 14:09:56;;;;;;;15.93;8.52;;;20.60;69.10;;;;;;10406723;28;20025;-78
2022/10/18 14:15:14;;;;;;;13.07;7.22;;;20.50;70.10;;;;;;10395417;28;20114;-76
2022/10/18 14:20:25;;;;;;;18.55;9.98;;;20.30;69.90;;;;;;10397894;28;20130;-79
2022/10/18 14:25:36;;;;;;;16.85;9.73;;;20.10;71.30;;;;;;10394376;28;20080;-76
2022/10/18 14:30:56;;;;;;;11.32;7.00;;;20.00;71.30;;;;;;10392328;28;20037;-76
2022/10/18 14:36:07;;;;;;;16.77;9.18;;;19.80;71.80;;;;;;10403853;28;20048;-77
2022/10/18 14:41:21;;;;;;;14.82;7.30;;;19.70;72.00;;;;;;10405009;28;20049;-76
2022/10/18 14:46:27;;;;;;;12.45;5.80;;;19.60;72.60;;;;;;10399158;28;20413;-76
2022/10/18 14:51:35;;;;;;;14.18;7.75;;;19.50;72.60;;;;;;10401001;28;20569;-77
2022/10/18 14:56:38;;;;;;;17.15;7.35;;;19.30;73.10;;;;;;10403492;28;20111;-77
2022/10/18 15:01:38;;;;;;;13.52;7.22;;;19.20;73.60;;;;;;10391916;28;20837;-78
2022/10/18 15:06:43;;;;;;;13.80;8.25;;;19.10;74.10;;;;;;10401608;28;20164;-80
2022/10/18 15:11:44;;;;;;;35.83;17.63;;;18.90;74.60;;;;;;10398600;28;20049;-77
2022/10/18 15:16:47;;;;;;;17.75;9.00;;;18.70;74.30;;;;;;10388956;28;20057;-77
2022/10/18 15:21:54;;;;;;;14.50;8.43;;;18.60;75.20;;;;;;10397478;28;20389;-78
2022/10/18 15:26:59;;;;;;;17.67;9.38;;;18.40;75.60;;;;;;10392594;28;20037;-79
2022/10/18 15:32:11;;;;;;;16.88;10.35;;;18.20;76.00;;;;;;10396351;28;20044;-76
2022/10/18 15:37:27;;;;;;;13.02;7.50;;;18.10;76.60;;;;;;10384169;28;20029;-80
2022/10/18 15:42:37;;;;;;;;;;;17.90;76.90;;;;;;10401885;28;20048;-77
2022/10/18 15:47:37;;;;;;;13.23;8.00;;;17.80;77.30;;;;;;10392227;28;19967;-77
2022/10/18 15:52:38;;;;;;;14.43;9.73;;;17.70;77.90;;;;;;10399574;28;20030;-80
2022/10/18 15:57:39;;;;;;;17.65;9.07;;;17.60;78.50;;;;;;10404987;28;20485;-77
2022/10/18 16:02:39;;;;;;;16.67;8.85;;;17.60;78.90;;;;;;10399026;28;20036;-76
2022/10/18 16:07:40;;;;;;;19.40;9.48;;;17.50;79.40;;;;;;10401548;28;20107;-78
2022/10/18 16:12:40;;;;;;;200.13;111.18;;;17.40;79.70;;;;;;10384948;28;20048;-75
2022/10/18 16:17:41;;;;;;;157.43;75.85;;;17.40;80.30;;;;;;10390255;28;20484;-78
2022/10/18 16:22:41;;;;;;;125.30;58.90;;;17.30;80.50;;;;;;10381229;28;20125;-76
2022/10/18 16:27:42;;;;;;;72.78;37.00;;;17.30;81.00;;;;;;10387517;28;20033;-76
2022/10/18 16:32:43;;;;;;;46.22;23.73;;;17.30;81.10;;;;;;10397673;28;20124;-76
2022/10/18 16:37:43;;;;;;;57.90;31.05;;;17.30;81.40;;;;;;10403788;28;20112;-76
2022/10/18 16:42:44;;;;;;;81.72;41.78;;;17.20;81.30;;;;;;10401610;28;20040;-75
2022/10/18 16:47:45;;;;;;;33.33;16.60;;;17.20;81.80;;;;;;10386523;28;20033;-77
2022/10/18 16:52:45;;;;;;;22.17;14.32;;;17.20;82.10;;;;;;10394353;28;20050;-76
2022/10/18 16:57:47;;;;;;;29.85;17.50;;;17.10;82.30;;;;;;10395702;28;20484;-74
2022/10/18 17:02:49;;;;;;;31.77;17.65;;;17.10;82.50;;;;;;10390915;28;20696;-75
2022/10/18 17:07:49;;;;;;;28.38;14.88;;;17.10;82.90;;;;;;10393146;28;20453;-74
2022/10/18 17:12:50;;;;;;;21.38;12.55;;;17.10;83.10;;;;;;10393603;28;20096;-76
2022/10/18 17:17:51;;;;;;;34.75;18.83;;;17.10;83.10;;;;;;10399310;28;20030;-75
2022/10/18 17:22:52;;;;;;;27.92;15.45;;;17.10;83.40;;;;;;10401030;28;20108;-76
2022/10/18 17:27:52;;;;;;;20.45;12.57;;;17.10;83.40;;;;;;10390046;28;20036;-76
2022/10/18 17:32:53;;;;;;;24.10;14.57;;;17.10;84.00;;;;;;10398775;28;20401;-77
2022/10/18 17:37:54;;;;;;;26.77;15.00;;;17.10;84.10;;;;;;10401958;28;20036;-75
2022/10/18 17:42:55;;;;;;;28.58;15.75;;;17.00;84.40;;;;;;10399289;28;20389;-75
2022/10/18 17:47:55;;;;;;;24.60;14.75;;;17.00;84.90;;;;;;10395756;28;20041;-75
2022/10/18 17:52:56;;;;;;;31.00;17.35;;;17.00;85.10;;;;;;10393886;28;20363;-76
2022/10/18 17:57:57;;;;;;;24.17;14.63;;;17.00;85.90;;;;;;10401330;28;20030;-78
2022/10/18 18:02:58;;;;;;;26.67;15.27;;;17.00;86.70;;;;;;10403813;28;20041;-75
2022/10/18 18:07:59;;;;;;;30.15;17.88;;;17.00;87.90;;;;;;10398452;28;20062;-76
2022/10/18 18:13:01;;;;;;;30.67;16.63;;;16.90;88.60;;;;;;10400362;28;20225;-77
2022/10/18 18:18:01;;;;;;;28.92;15.77;;;16.90;89.00;;;;;;10395390;28;20038;-79
2022/10/18 18:23:02;;;;;;;25.15;14.75;;;16.90;90.10;;;;;;10387308;28;20072;-77
2022/10/18 18:28:03;;;;;;;26.67;15.77;;;16.90;90.50;;;;;;10389212;28;20038;-76
2022/10/18 18:33:04;;;;;;;27.38;17.13;;;16.90;91.10;;;;;;10392163;28;20054;-76
2022/10/18 18:38:04;;;;;;;23.35;15.60;;;16.90;91.30;;;;;;10389666;28;20209;-76
2022/10/18 18:43:05;;;;;;;24.60;15.52;;;16.90;91.80;;;;;;10400588;28;20504;-77
2022/10/18 18:48:06;;;;;;;20.23;13.88;;;16.90;92.60;;;;;;10393528;28;20022;-76
2022/10/18 18:53:07;;;;;;;20.65;12.85;;;16.90;94.20;;;;;;10395928;28;20086;-76
2022/10/18 18:58:09;;;;;;;16.58;11.40;;;16.80;98.30;;;;;;10396447;28;20812;-79
2022/10/18 19:03:10;;;;;;;14.13;9.57;;;16.60;99.90;;;;;;10394345;28;20025;-77
2022/10/18 19:08:11;;;;;;;13.45;9.52;;;16.40;99.90;;;;;;10402830;28;20409;-76
2022/10/18 19:13:11;;;;;;;18.35;10.15;;;16.20;99.90;;;;;;10394026;28;20030;-78
2022/10/18 19:18:12;;;;;;;8.98;5.93;;;15.80;99.90;;;;;;10393846;28;20464;-77
2022/10/18 19:23:12;;;;;;;8.65;5.47;;;15.40;99.90;;;;;;10393974;28;20059;-78
2022/10/18 19:28:13;;;;;;;5.90;3.15;;;14.90;99.90;;;;;;10394403;28;20042;-77
2022/10/18 19:33:14;;;;;;;3.88;2.75;;;14.60;99.90;;;;;;10403541;28;20042;-77
2022/10/18 19:38:14;;;;;;;4.82;2.75;;;14.40;99.90;;;;;;10396565;28;20026;-77
2022/10/18 19:43:15;;;;;;;4.35;2.70;;;14.20;99.90;;;;;;10404086;28;20037;-77
2022/10/18 19:48:16;;;;;;;2.80;2.30;;;14.10;99.90;;;;;;10406482;28;20033;-78
2022/10/18 19:53:16;;;;;;;5.95;2.17;;;13.90;99.90;;;;;;10398510;28;20044;-78
2022/10/18 19:58:17;;;;;;;3.95;2.55;;;13.80;99.90;;;;;;10404019;28;20094;-77
2022/10/18 20:03:17;;;;;;;4.22;3.22;;;13.60;99.90;;;;;;10401379;28;20105;-80
2022/10/18 20:08:18;;;;;;;4.75;3.35;;;13.50;99.90;;;;;;10405936;28;20158;-79
2022/10/18 20:13:19;;;;;;;5.72;3.50;;;13.40;99.90;;;;;;10410087;28;20396;-78
2022/10/18 20:18:20;;;;;;;4.47;3.10;;;13.20;99.90;;;;;;10403627;28;20035;-78
2022/10/18 20:23:21;;;;;;;2.97;1.73;;;13.10;99.90;;;;;;10398466;28;20374;-80
2022/10/18 20:28:23;;;;;;;4.55;2.38;;;13.00;99.90;;;;;;10409489;28;20029;-77
2022/10/18 20:33:23;;;;;;;5.15;2.22;;;12.80;99.90;;;;;;10408129;28;20042;-78
2022/10/18 20:38:24;;;;;;;5.82;3.28;;;12.70;99.90;;;;;;10408810;28;20037;-77
2022/10/18 20:43:24;;;;;;;5.45;3.03;;;12.70;99.90;;;;;;10406445;28;20037;-78
2022/10/18 20:48:26;;;;;;;6.00;3.50;;;12.70;99.90;;;;;;10408666;28;20473;-79
2022/10/18 20:53:26;;;;;;;6.03;3.28;;;12.70;99.90;;;;;;10406150;28;20121;-78
2022/10/18 20:58:27;;;;;;;7.80;4.30;;;12.70;99.90;;;;;;10403684;28;20595;-78
2022/10/18 21:03:28;;;;;;;6.13;4.03;;;12.70;99.90;;;;;;10402281;28;20433;-78
2022/10/18 21:08:28;;;;;;;6.53;4.20;;;12.70;99.90;;;;;;10391921;28;20053;-78
2022/10/18 21:13:29;;;;;;;6.38;3.67;;;12.80;99.90;;;;;;10408677;28;20072;-77
2022/10/18 21:18:32;;;;;;;5.97;3.50;;;12.70;99.90;;;;;;10399273;28;20033;-77
2022/10/18 21:23:33;;;;;;;5.75;3.78;;;12.80;99.90;;;;;;10393795;28;20383;-80
2022/10/18 21:28:33;;;;;;;6.55;3.50;;;12.70;99.90;;;;;;10407666;28;20041;-79
2022/10/18 21:33:34;;;;;;;6.95;3.22;;;12.70;99.90;;;;;;10393049;28;20784;-77
2022/10/18 21:38:35;;;;;;;7.55;3.92;;;12.70;99.90;;;;;;10407387;28;20091;-77
2022/10/18 21:43:42;;;;;;;5.63;3.78;;;12.60;99.90;;;;;;10402441;28;20048;-78
2022/10/18 21:48:45;;;;;;;6.55;4.03;;;12.60;99.90;;;;;;10406460;28;20037;-80
2022/10/18 21:53:47;;;;;;;9.73;5.10;;;12.50;99.90;;;;;;10397057;28;20480;-79
2022/10/18 21:58:48;;;;;;;7.03;4.35;;;12.50;99.90;;;;;;10405947;28;20086;-78
2022/10/18 22:03:51;;;;;;;9.52;5.28;;;12.50;99.90;;;;;;10404743;28;20114;-77
2022/10/18 22:08:57;;;;;;;7.65;4.40;;;12.60;99.90;;;;;;10404925;28;20045;-79
2022/10/18 22:13:57;;;;;;;;;;;12.60;99.90;;;;;;10394620;28;20045;-78
2022/10/18 22:19:00;;;;;;;12.38;7.88;;;12.60;99.90;;;;;;10404780;28;19913;-80
2022/10/18 22:24:04;;;;;;;22.80;10.52;;;12.60;99.90;;;;;;10405454;28;20038;-78
2022/10/18 22:29:09;;;;;;;18.92;8.95;;;12.70;99.90;;;;;;10395797;28;20034;-78
2022/10/18 22:34:14;;;;;;;30.48;19.15;;;12.70;99.90;;;;;;10394052;28;20114;-78
2022/10/18 22:39:15;;;;;;;28.58;16.85;;;12.70;99.90;;;;;;10403515;28;20029;-77
2022/10/18 22:44:16;;;;;;;36.22;19.55;;;12.70;99.90;;;;;;10405103;28;20473;-78
2022/10/18 22:49:16;;;;;;;50.03;32.90;;;12.80;99.90;;;;;;10388783;28;20045;-78
2022/10/18 22:54:17;;;;;;;76.88;47.63;;;12.80;99.90;;;;;;10403634;28;20569;-78
2022/10/18 22:59:18;;;;;;;62.05;32.25;;;12.80;99.90;;;;;;10402013;28;20027;-78
2022/10/18 23:04:18;;;;;;;40.67;20.02;;;12.80;99.90;;;;;;10400782;28;20045;-79
2022/10/18 23:09:19;;;;;;;62.60;32.22;;;12.80;99.90;;;;;;10397035;28;20040;-79
2022/10/18 23:14:19;;;;;;;27.20;13.02;;;12.80;99.90;;;;;;10395390;28;20045;-78
2022/10/18 23:19:20;;;;;;;26.27;12.63;;;12.80;99.90;;;;;;10406303;28;20041;-78
2022/10/18 23:24:20;;;;;;;25.15;12.38;;;12.80;99.90;;;;;;10403538;28;20049;-77
2022/10/18 23:29:21;;;;;;;20.00;11.48;;;12.70;99.90;;;;;;10401840;28;20037;-78
2022/10/18 23:34:21;;;;;;;29.75;13.73;;;12.70;99.90;;;;;;10403326;28;20116;-80
2022/10/18 23:39:22;;;;;;;31.92;15.93;;;12.70;99.90;;;;;;10410029;28;20109;-78
2022/10/18 23:44:22;;;;;;;23.27;11.35;;;12.60;99.90;;;;;;10412569;28;20029;-78
2022/10/18 23:49:23;;;;;;;24.38;11.75;;;12.40;99.90;;;;;;10411207;28;20479;-78
2022/10/18 23:54:24;;;;;;;23.75;11.60;;;12.40;99.90;;;;;;10405619;28;20516;-79
2022/10/18 23:59:25;;;;;;;26.60;11.75;;;12.40;99.90;;;;;;10405648;28;20535;-78
